This is the latest recevied weather packets stored in our database for station/object YO3IEZ-WX. If no packets are shown the sender has not sent any weather packets the latest 10 day(s).
| Time | Temp. | Humidity | Pressure | Rain* | Wind** | Luminosity | Snow |
|---|---|---|---|---|---|---|---|
| 1777995051 | 23.33° C | 47% | 1003.2 hPa | 0 mm | - | 44 W/m² | - |
| 1777993250 | 24.44° C | 45% | 1003.5 hPa | 0 mm | - | 100 W/m² | - |
| 1777988751 | 25.56° C | 43% | 1003.4 hPa | 0 mm | - | 524 W/m² | - |
| 1777983350 | 25° C | 41% | 1004.2 hPa | 0 mm | - | 714 W/m² | - |
| 1777981550 | 25° C | 44% | 1004.5 hPa | 0 mm | - | 747 W/m² | - |
| 1777977944 | 22.78° C | 45% | 1005.2 hPa | 0 mm | - | 819 W/m² | - |
| 1777975252 | 22.22° C | 50% | 1005.4 hPa | 0 mm | - | 821 W/m² | - |
| 1777966263 | 19.44° C | 57% | 1005.9 hPa | 0 mm | - | 666 W/m² | - |
| 1777963550 | 18.33° C | 62% | 1005.9 hPa | 0 mm | - | 541 W/m² | - |
| 1777956345 | 13.89° C | 73% | 1005.5 hPa | 0 mm | - | 216 W/m² | - |
| 1777945565 | 11.11° C | 78% | 1004.8 hPa | 0 mm | - | 0 W/m² | - |
| 1777943751 | 11.67° C | 77% | 1004.8 hPa | 0 mm | - | 0 W/m² | - |
| 1777939271 | 12.22° C | 74% | 1004.6 hPa | 0 mm | - | 0 W/m² | - |
| 1777938357 | 12.78° C | 73% | 1004.8 hPa | 0 mm | - | 0 W/m² | - |
| 1777934744 | 13.89° C | 68% | 1005 hPa | 0 mm | - | 0 W/m² | - |
| 1777929358 | 14.44° C | 66% | 1004.8 hPa | 0 mm | - | 0 W/m² | - |
| 1777922153 | 16.11° C | 62% | 1004.9 hPa | 0 mm | - | 0 W/m² | - |
| 1777919448 | 17.22° C | 60% | 1004.8 hPa | 0 mm | - | 0 W/m² | - |
| 1777914949 | 19.44° C | 56% | 1004.5 hPa | 0 mm | - | 12 W/m² | - |
| 1777913152 | 20.56° C | 52% | 1004.4 hPa | 0 mm | - | 46 W/m² | - |
| 1777911351 | 21.11° C | 49% | 1004.4 hPa | 0 mm | - | 90 W/m² | - |
| 1777907745 | 21.11° C | 45% | 1004.6 hPa | 0 mm | - | 142 W/m² | - |
| 1777906844 | 21.11° C | 44% | 1004.5 hPa | 0 mm | - | 158 W/m² | - |
| 1777904147 | 21.67° C | 42% | 1004.6 hPa | 0 mm | - | 195 W/m² | - |
| 1777899650 | 22.22° C | 38% | 1004.9 hPa | 0 mm | - | 264 W/m² | - |
* Rain latest hour (hover to see other rain measurements)
** Current wind speed in m/s (hover to see current wind gust speed)